sensor_id;sensor_type;location;lat;lon;timestamp;pressure;altitude;pressure_sealevel;temperature;humidity
77454;BME280;66538;53.150;18.160;2023-03-01T00:00:07;102826.64;;;-1.83;71.72
77454;BME280;66538;53.150;18.160;2023-03-01T00:02:58;102830.30;;;-1.84;71.72
77454;BME280;66538;53.150;18.160;2023-03-01T00:05:24;102832.58;;;-1.86;71.89
77454;BME280;66538;53.150;18.160;2023-03-01T00:07:54;102829.23;;;-1.92;71.44
77454;BME280;66538;53.150;18.160;2023-03-01T00:10:21;102818.70;;;-2.13;71.99
77454;BME280;66538;53.150;18.160;2023-03-01T00:12:47;102816.77;;;-2.17;71.94
77454;BME280;66538;53.150;18.160;2023-03-01T00:15:14;102818.27;;;-2.12;71.98
77454;BME280;66538;53.150;18.160;2023-03-01T00:17:41;102814.45;;;-2.19;71.76
77454;BME280;66538;53.150;18.160;2023-03-01T00:20:08;102812.19;;;-2.15;71.92
77454;BME280;66538;53.150;18.160;2023-03-01T00:22:36;102813.31;;;-2.01;72.08
77454;BME280;66538;53.150;18.160;2023-03-01T00:25:04;102816.55;;;-1.89;72.16
77454;BME280;66538;53.150;18.160;2023-03-01T00:27:30;102814.44;;;-1.89;72.04
77454;BME280;66538;53.150;18.160;2023-03-01T00:29:57;102815.45;;;-1.91;72.41
77454;BME280;66538;53.150;18.160;2023-03-01T00:32:24;102815.89;;;-1.92;72.01
77454;BME280;66538;53.150;18.160;2023-03-01T00:34:51;102820.13;;;-1.93;71.65
77454;BME280;66538;53.150;18.160;2023-03-01T00:37:21;102820.83;;;-1.95;71.76
77454;BME280;66538;53.150;18.160;2023-03-01T00:39:48;102824.81;;;-1.98;71.75
77454;BME280;66538;53.150;18.160;2023-03-01T00:42:16;102818.64;;;-2.03;71.66
77454;BME280;66538;53.150;18.160;2023-03-01T00:44:42;102812.32;;;-2.07;72.04
77454;BME280;66538;53.150;18.160;2023-03-01T00:47:10;102789.84;;;-2.29;71.97
77454;BME280;66538;53.150;18.160;2023-03-01T00:49:36;102785.77;;;-2.33;72.11
77454;BME280;66538;53.150;18.160;2023-03-01T00:52:03;102785.31;;;-2.36;72.41
77454;BME280;66538;53.150;18.160;2023-03-01T00:54:30;102777.34;;;-2.44;72.59
77454;BME280;66538;53.150;18.160;2023-03-01T00:56:56;102779.59;;;-2.35;72.50
77454;BME280;66538;53.150;18.160;2023-03-01T00:59:23;102781.46;;;-2.25;72.54
77454;BME280;66538;53.150;18.160;2023-03-01T01:01:50;102785.31;;;-2.18;72.19
77454;BME280;66538;53.150;18.160;2023-03-01T01:04:16;102784.17;;;-2.18;72.45
77454;BME280;66538;53.150;18.160;2023-03-01T01:06:45;102785.73;;;-2.17;72.48
77454;BME280;66538;53.150;18.160;2023-03-01T01:09:16;102780.59;;;-2.17;72.56
77454;BME280;66538;53.150;18.160;2023-03-01T01:11:48;102774.23;;;-2.19;72.37
77454;BME280;66538;53.150;18.160;2023-03-01T01:14:16;102774.84;;;-2.20;72.56
77454;BME280;66538;53.150;18.160;2023-03-01T01:16:43;102774.75;;;-2.21;72.57
77454;BME280;66538;53.150;18.160;2023-03-01T01:19:11;102767.89;;;-2.24;72.56
77454;BME280;66538;53.150;18.160;2023-03-01T01:21:38;102767.73;;;-2.26;72.85
77454;BME280;66538;53.150;18.160;2023-03-01T01:24:05;102741.95;;;-2.56;72.77
77454;BME280;66538;53.150;18.160;2023-03-01T01:26:33;102741.42;;;-2.54;72.76
77454;BME280;66538;53.150;18.160;2023-03-01T01:29:03;102734.98;;;-2.48;73.47
77454;BME280;66538;53.150;18.160;2023-03-01T01:31:32;102739.94;;;-2.44;73.28
77454;BME280;66538;53.150;18.160;2023-03-01T01:34:00;102737.35;;;-2.41;73.14
77454;BME280;66538;53.150;18.160;2023-03-01T01:36:27;102734.05;;;-2.40;73.21
77454;BME280;66538;53.150;18.160;2023-03-01T01:38:54;102743.89;;;-2.19;72.69
77454;BME280;66538;53.150;18.160;2023-03-01T01:41:23;102744.42;;;-2.11;72.96
77454;BME280;66538;53.150;18.160;2023-03-01T01:46:38;102740.70;;;-2.11;72.69
77454;BME280;66538;53.150;18.160;2023-03-01T01:49:16;102744.42;;;-2.11;72.99
77454;BME280;66538;53.150;18.160;2023-03-01T01:51:45;102738.70;;;-2.13;72.89
77454;BME280;66538;53.150;18.160;2023-03-01T01:54:23;102731.40;;;-2.14;72.61
77454;BME280;66538;53.150;18.160;2023-03-01T01:56:56;102725.95;;;-2.17;73.01
77454;BME280;66538;53.150;18.160;2023-03-01T01:59:25;102706.48;;;-2.41;72.68
77454;BME280;66538;53.150;18.160;2023-03-01T02:01:54;102706.36;;;-2.45;72.80
77454;BME280;66538;53.150;18.160;2023-03-01T02:04:22;102707.58;;;-2.47;72.87
77454;BME280;66538;53.150;18.160;2023-03-01T02:06:55;102711.38;;;-2.44;72.68
77454;BME280;66538;53.150;18.160;2023-03-01T02:09:24;102717.44;;;-2.36;72.73
77454;BME280;66538;53.150;18.160;2023-03-01T02:11:51;102732.48;;;-2.15;72.37
77454;BME280;66538;53.150;18.160;2023-03-01T02:14:19;102730.56;;;-2.13;72.53
77454;BME280;66538;53.150;18.160;2023-03-01T02:16:46;102726.98;;;-2.13;72.30
77454;BME280;66538;53.150;18.160;2023-03-01T02:19:26;102726.81;;;-2.13;72.31
77454;BME280;66538;53.150;18.160;2023-03-01T02:22:06;102730.13;;;-2.14;72.10
77454;BME280;66538;53.150;18.160;2023-03-01T02:24:45;102724.77;;;-2.17;72.44
77454;BME280;66538;53.150;18.160;2023-03-01T02:27:16;102725.45;;;-2.19;72.31
77454;BME280;66538;53.150;18.160;2023-03-01T02:29:44;102726.20;;;-2.22;72.32
77454;BME280;66538;53.150;18.160;2023-03-01T02:32:12;102717.58;;;-2.32;72.38
77454;BME280;66538;53.150;18.160;2023-03-01T02:34:39;102703.61;;;-2.44;72.83
77454;BME280;66538;53.150;18.160;2023-03-01T02:37:13;102690.60;;;-2.57;72.79
77454;BME280;66538;53.150;18.160;2023-03-01T02:39:47;102689.23;;;-2.48;72.74
77454;BME280;66538;53.150;18.160;2023-03-01T02:42:21;102689.20;;;-2.42;72.51
77454;BME280;66538;53.150;18.160;2023-03-01T02:44:49;102699.13;;;-2.18;72.53
77454;BME280;66538;53.150;18.160;2023-03-01T02:47:16;102698.83;;;-2.17;72.53
77454;BME280;66538;53.150;18.160;2023-03-01T02:49:43;102702.13;;;-2.16;72.92
77454;BME280;66538;53.150;18.160;2023-03-01T02:57:36;102692.02;;;-2.20;72.87
77454;BME280;66538;53.150;18.160;2023-03-01T03:00:07;102693.13;;;-2.23;72.83
77454;BME280;66538;53.150;18.160;2023-03-01T03:02:36;102671.95;;;-2.49;73.08
77454;BME280;66538;53.150;18.160;2023-03-01T03:05:11;102665.28;;;-2.57;72.94
77454;BME280;66538;53.150;18.160;2023-03-01T03:07:41;102672.02;;;-2.52;72.90
77454;BME280;66538;53.150;18.160;2023-03-01T03:10:12;102675.02;;;-2.46;73.22
77454;BME280;66538;53.150;18.160;2023-03-01T03:12:40;102703.47;;;-2.19;72.69
77454;BME280;66538;53.150;18.160;2023-03-01T03:15:09;102698.45;;;-2.19;72.81
77454;BME280;66538;53.150;18.160;2023-03-01T03:17:37;102693.98;;;-2.20;73.38
77454;BME280;66538;53.150;18.160;2023-03-01T03:20:05;102691.16;;;-2.23;72.70
77454;BME280;66538;53.150;18.160;2023-03-01T03:22:32;102684.99;;;-2.25;72.92
77454;BME280;66538;53.150;18.160;2023-03-01T03:25:00;102681.14;;;-2.27;73.01
77454;BME280;66538;53.150;18.160;2023-03-01T03:27:28;102677.17;;;-2.31;72.97
77454;BME280;66538;53.150;18.160;2023-03-01T03:29:54;102679.70;;;-2.33;73.03
77454;BME280;66538;53.150;18.160;2023-03-01T03:32:21;102668.97;;;-2.36;72.81
77454;BME280;66538;53.150;18.160;2023-03-01T03:34:47;102650.41;;;-2.56;73.49
77454;BME280;66538;53.150;18.160;2023-03-01T03:37:15;102639.16;;;-2.68;74.02
77454;BME280;66538;53.150;18.160;2023-03-01T03:40:01;102643.66;;;-2.57;73.61
77454;BME280;66538;53.150;18.160;2023-03-01T03:42:27;102632.77;;;-2.66;73.69
77454;BME280;66538;53.150;18.160;2023-03-01T03:44:54;102632.88;;;-2.66;73.58
77454;BME280;66538;53.150;18.160;2023-03-01T03:47:20;102636.20;;;-2.53;74.19
77454;BME280;66538;53.150;18.160;2023-03-01T03:49:47;102651.70;;;-2.35;74.07
77454;BME280;66538;53.150;18.160;2023-03-01T03:52:13;102654.48;;;-2.36;73.94
77454;BME280;66538;53.150;18.160;2023-03-01T03:54:40;102660.70;;;-2.36;73.72
77454;BME280;66538;53.150;18.160;2023-03-01T03:57:07;102664.52;;;-2.37;73.49
77454;BME280;66538;53.150;18.160;2023-03-01T03:59:33;102663.77;;;-2.39;73.31
77454;BME280;66538;53.150;18.160;2023-03-01T04:02:00;102663.95;;;-2.41;73.76
77454;BME280;66538;53.150;18.160;2023-03-01T04:04:27;102670.33;;;-2.43;73.70
77454;BME280;66538;53.150;18.160;2023-03-01T04:06:53;102671.70;;;-2.44;73.53
77454;BME280;66538;53.150;18.160;2023-03-01T04:09:20;102668.37;;;-2.47;73.41
77454;BME280;66538;53.150;18.160;2023-03-01T04:11:46;102674.77;;;-2.49;73.59
77454;BME280;66538;53.150;18.160;2023-03-01T04:14:13;102673.46;;;-2.52;73.59
77454;BME280;66538;53.150;18.160;2023-03-01T04:16:40;102652.81;;;-2.78;73.30
77454;BME280;66538;53.150;18.160;2023-03-01T04:19:06;102650.02;;;-2.83;73.85
77454;BME280;66538;53.150;18.160;2023-03-01T04:21:33;102654.34;;;-2.75;73.86
77454;BME280;66538;53.150;18.160;2023-03-01T04:24:00;102659.83;;;-2.72;74.15
77454;BME280;66538;53.150;18.160;2023-03-01T04:26:26;102657.68;;;-2.68;74.10
77454;BME280;66538;53.150;18.160;2023-03-01T04:28:53;102656.90;;;-2.57;74.20
77454;BME280;66538;53.150;18.160;2023-03-01T04:31:20;102657.17;;;-2.44;73.62
77454;BME280;66538;53.150;18.160;2023-03-01T04:33:50;102652.88;;;-2.42;73.82
77454;BME280;66538;53.150;18.160;2023-03-01T04:36:19;102648.87;;;-2.43;74.05
77454;BME280;66538;53.150;18.160;2023-03-01T04:38:46;102646.79;;;-2.43;74.05
77454;BME280;66538;53.150;18.160;2023-03-01T04:41:18;102652.22;;;-2.45;73.65
77454;BME280;66538;53.150;18.160;2023-03-01T04:43:45;102654.54;;;-2.47;73.88
77454;BME280;66538;53.150;18.160;2023-03-01T04:46:14;102647.40;;;-2.50;73.93
77454;BME280;66538;53.150;18.160;2023-03-01T04:48:43;102644.77;;;-2.50;74.01
77454;BME280;66538;53.150;18.160;2023-03-01T04:51:11;102646.15;;;-2.52;74.12
77454;BME280;66538;53.150;18.160;2023-03-01T04:53:41;102620.30;;;-2.79;74.71
77454;BME280;66538;53.150;18.160;2023-03-01T04:56:09;102614.46;;;-2.77;74.78
77454;BME280;66538;53.150;18.160;2023-03-01T04:58:36;102608.41;;;-2.69;74.81
77454;BME280;66538;53.150;18.160;2023-03-01T05:01:09;102612.92;;;-2.66;74.72
77454;BME280;66538;53.150;18.160;2023-03-01T05:03:48;102616.23;;;-2.60;74.64
77454;BME280;66538;53.150;18.160;2023-03-01T05:06:17;102628.59;;;-2.42;74.30
77454;BME280;66538;53.150;18.160;2023-03-01T05:08:45;102638.23;;;-2.37;74.22
77454;BME280;66538;53.150;18.160;2023-03-01T05:11:11;102641.70;;;-2.36;73.87
77454;BME280;66538;53.150;18.160;2023-03-01T05:13:39;102642.79;;;-2.36;74.00
77454;BME280;66538;53.150;18.160;2023-03-01T05:16:07;102648.48;;;-2.37;74.05
77454;BME280;66538;53.150;18.160;2023-03-01T05:18:37;102646.86;;;-2.38;73.90
77454;BME280;66538;53.150;18.160;2023-03-01T05:21:09;102641.79;;;-2.41;74.06
77454;BME280;66538;53.150;18.160;2023-03-01T05:23:36;102641.98;;;-2.43;74.26
77454;BME280;66538;53.150;18.160;2023-03-01T05:26:05;102640.98;;;-2.48;73.85
77454;BME280;66538;53.150;18.160;2023-03-01T05:28:33;102642.76;;;-2.48;74.06
77454;BME280;66538;53.150;18.160;2023-03-01T05:31:00;102622.05;;;-2.69;74.64
77454;BME280;66538;53.150;18.160;2023-03-01T05:33:27;102615.76;;;-2.78;74.74
77454;BME280;66538;53.150;18.160;2023-03-01T05:35:54;102620.33;;;-2.78;74.89
77454;BME280;66538;53.150;18.160;2023-03-01T05:38:21;102622.20;;;-2.71;75.17
77454;BME280;66538;53.150;18.160;2023-03-01T05:40:48;102619.19;;;-2.69;75.09
77454;BME280;66538;53.150;18.160;2023-03-01T05:43:16;102634.63;;;-2.50;75.11
77454;BME280;66538;53.150;18.160;2023-03-01T05:45:43;102641.59;;;-2.41;74.56
77454;BME280;66538;53.150;18.160;2023-03-01T05:48:11;102638.51;;;-2.40;74.91
77454;BME280;66538;53.150;18.160;2023-03-01T05:50:41;102636.50;;;-2.39;74.48
77454;BME280;66538;53.150;18.160;2023-03-01T05:53:17;102644.95;;;-2.38;74.31
77454;BME280;66538;53.150;18.160;2023-03-01T05:55:43;102642.38;;;-2.40;74.56
77454;BME280;66538;53.150;18.160;2023-03-01T05:58:13;102641.65;;;-2.39;74.92
77454;BME280;66538;53.150;18.160;2023-03-01T06:00:43;102642.15;;;-2.41;74.73
77454;BME280;66538;53.150;18.160;2023-03-01T06:03:13;102647.42;;;-2.40;74.34
77454;BME280;66538;53.150;18.160;2023-03-01T06:05:40;102646.91;;;-2.39;74.41
77454;BME280;66538;53.150;18.160;2023-03-01T06:08:09;102630.77;;;-2.54;74.40
77454;BME280;66538;53.150;18.160;2023-03-01T06:10:36;102627.29;;;-2.61;74.78
77454;BME280;66538;53.150;18.160;2023-03-01T06:13:04;102631.23;;;-2.45;74.64
77454;BME280;66538;53.150;18.160;2023-03-01T06:15:30;102632.27;;;-2.41;74.98
77454;BME280;66538;53.150;18.160;2023-03-01T06:17:57;102637.23;;;-2.36;74.54
77454;BME280;66538;53.150;18.160;2023-03-01T06:20:26;102639.32;;;-2.20;74.56
77454;BME280;66538;53.150;18.160;2023-03-01T06:22:53;102652.57;;;-2.00;74.30
77454;BME280;66538;53.150;18.160;2023-03-01T06:25:22;102653.13;;;-1.91;73.88
77454;BME280;66538;53.150;18.160;2023-03-01T06:27:49;102650.43;;;-1.83;73.84
77454;BME280;66538;53.150;18.160;2023-03-01T06:30:18;102658.35;;;-1.77;74.11
77454;BME280;66538;53.150;18.160;2023-03-01T06:32:45;102656.36;;;-1.73;73.40
77454;BME280;66538;53.150;18.160;2023-03-01T06:35:14;102654.79;;;-1.67;73.72
77454;BME280;66538;53.150;18.160;2023-03-01T06:37:41;102657.58;;;-1.63;73.35
77454;BME280;66538;53.150;18.160;2023-03-01T06:40:09;102659.30;;;-1.59;73.53
77454;BME280;66538;53.150;18.160;2023-03-01T06:42:39;102655.75;;;-1.59;73.32
77454;BME280;66538;53.150;18.160;2023-03-01T06:45:07;102654.85;;;-1.57;73.59
77454;BME280;66538;53.150;18.160;2023-03-01T06:47:34;102652.02;;;-1.57;73.32
77454;BME280;66538;53.150;18.160;2023-03-01T06:50:02;102639.56;;;-1.64;73.20
77454;BME280;66538;53.150;18.160;2023-03-01T06:52:29;102639.80;;;-1.61;73.23
77454;BME280;66538;53.150;18.160;2023-03-01T06:54:56;102641.86;;;-1.41;72.91
77454;BME280;66538;53.150;18.160;2023-03-01T06:57:22;102634.92;;;-1.36;72.93
77454;BME280;66538;53.150;18.160;2023-03-01T06:59:49;102635.63;;;-1.31;72.64
77454;BME280;66538;53.150;18.160;2023-03-01T07:02:16;102643.45;;;-1.12;72.76
77454;BME280;66538;53.150;18.160;2023-03-01T07:04:43;102646.05;;;-1.04;72.41
77454;BME280;66538;53.150;18.160;2023-03-01T07:07:10;102641.15;;;-1.00;72.41
77454;BME280;66538;53.150;18.160;2023-03-01T07:09:36;102637.36;;;-0.95;72.22
77454;BME280;66538;53.150;18.160;2023-03-01T07:12:03;102643.52;;;-0.89;72.37
77454;BME280;66538;53.150;18.160;2023-03-01T07:14:30;102642.96;;;-0.84;72.15
77454;BME280;66538;53.150;18.160;2023-03-01T07:16:56;102635.65;;;-0.76;72.22
77454;BME280;66538;53.150;18.160;2023-03-01T07:19:23;102623.92;;;-0.78;71.95
77454;BME280;66538;53.150;18.160;2023-03-01T07:21:50;102614.02;;;-0.80;72.13
77454;BME280;66538;53.150;18.160;2023-03-01T07:24:16;102610.69;;;-0.74;71.91
77454;BME280;66538;53.150;18.160;2023-03-01T07:26:43;102601.23;;;-0.70;71.88
77454;BME280;66538;53.150;18.160;2023-03-01T07:29:10;102611.45;;;-0.47;71.90
77454;BME280;66538;53.150;18.160;2023-03-01T07:31:37;102603.46;;;-0.42;71.77
77454;BME280;66538;53.150;18.160;2023-03-01T07:34:03;102610.41;;;-0.13;71.40
77454;BME280;66538;53.150;18.160;2023-03-01T07:36:30;102614.41;;;0.06;71.34
77454;BME280;66538;53.150;18.160;2023-03-01T07:38:57;102612.19;;;0.17;71.15
77454;BME280;66538;53.150;18.160;2023-03-01T07:41:24;102607.35;;;0.25;70.79
77454;BME280;66538;53.150;18.160;2023-03-01T07:43:50;102607.40;;;0.35;70.66
77454;BME280;66538;53.150;18.160;2023-03-01T07:46:17;102607.77;;;0.45;70.33
77454;BME280;66538;53.150;18.160;2023-03-01T07:48:45;102607.06;;;0.55;70.48
77454;BME280;66538;53.150;18.160;2023-03-01T07:51:12;102604.30;;;0.57;69.86
77454;BME280;66538;53.150;18.160;2023-03-01T07:53:40;102591.16;;;0.54;70.09
77454;BME280;66538;53.150;18.160;2023-03-01T07:56:11;102593.91;;;0.63;69.89
77454;BME280;66538;53.150;18.160;2023-03-01T07:58:41;102592.47;;;0.73;69.88
77454;BME280;66538;53.150;18.160;2023-03-01T08:01:11;102595.95;;;0.96;69.83
77454;BME280;66538;53.150;18.160;2023-03-01T08:03:39;102602.31;;;1.21;69.72
77454;BME280;66538;53.150;18.160;2023-03-01T08:06:08;102601.30;;;1.34;69.22
77454;BME280;66538;53.150;18.160;2023-03-01T08:08:35;102596.19;;;1.43;69.09
77454;BME280;66538;53.150;18.160;2023-03-01T08:11:04;102597.40;;;1.51;69.05
77454;BME280;66538;53.150;18.160;2023-03-01T08:13:31;102598.98;;;1.58;68.94
77454;BME280;66538;53.150;18.160;2023-03-01T08:16:07;102607.50;;;1.65;68.92
77454;BME280;66538;53.150;18.160;2023-03-01T08:18:34;102612.63;;;1.72;69.06
77454;BME280;66538;53.150;18.160;2023-03-01T08:21:05;102594.50;;;1.57;69.02
77454;BME280;66538;53.150;18.160;2023-03-01T08:23:33;102594.56;;;1.69;69.26
77454;BME280;66538;53.150;18.160;2023-03-01T08:26:11;102596.41;;;1.80;69.25
77454;BME280;66538;53.150;18.160;2023-03-01T08:28:39;102588.56;;;1.88;69.11
77454;BME280;66538;53.150;18.160;2023-03-01T08:33:41;102604.14;;;2.31;68.72
77454;BME280;66538;53.150;18.160;2023-03-01T08:36:08;102605.10;;;2.45;68.58
77454;BME280;66538;53.150;18.160;2023-03-01T08:38:35;102597.50;;;2.58;68.22
77454;BME280;66538;53.150;18.160;2023-03-01T08:41:03;102598.05;;;2.67;68.06
77454;BME280;66538;53.150;18.160;2023-03-01T08:43:30;102598.84;;;2.78;68.17
77454;BME280;66538;53.150;18.160;2023-03-01T08:45:57;102594.96;;;2.89;68.17
77454;BME280;66538;53.150;18.160;2023-03-01T08:48:24;102596.61;;;3.02;67.92
77454;BME280;66538;53.150;18.160;2023-03-01T08:50:51;102600.91;;;3.14;67.86
77454;BME280;66538;53.150;18.160;2023-03-01T08:53:18;102598.09;;;3.24;67.95
77454;BME280;66538;53.150;18.160;2023-03-01T08:55:45;102595.70;;;3.36;67.97
77454;BME280;66538;53.150;18.160;2023-03-01T08:58:12;102599.56;;;3.47;67.72
77454;BME280;66538;53.150;18.160;2023-03-01T09:00:39;102575.16;;;3.23;68.35
77454;BME280;66538;53.150;18.160;2023-03-01T09:03:06;102585.36;;;3.47;68.38
77454;BME280;66538;53.150;18.160;2023-03-01T09:05:34;102589.16;;;3.64;68.09
77454;BME280;66538;53.150;18.160;2023-03-01T09:08:02;102594.59;;;3.92;67.36
77454;BME280;66538;53.150;18.160;2023-03-01T09:10:29;102593.81;;;4.06;67.75
77454;BME280;66538;53.150;18.160;2023-03-01T09:12:55;102590.80;;;4.18;67.34
77454;BME280;66538;53.150;18.160;2023-03-01T09:15:22;102590.21;;;4.30;67.09
77454;BME280;66538;53.150;18.160;2023-03-01T09:17:48;102583.84;;;4.42;67.18
77454;BME280;66538;53.150;18.160;2023-03-01T09:20:15;102584.23;;;4.57;67.22
77454;BME280;66538;53.150;18.160;2023-03-01T09:22:42;102587.55;;;4.71;67.92
77454;BME280;66538;53.150;18.160;2023-03-01T09:25:10;102589.01;;;4.81;67.27
77454;BME280;66538;53.150;18.160;2023-03-01T09:27:37;102591.81;;;4.91;67.36
77454;BME280;66538;53.150;18.160;2023-03-01T09:30:04;102575.05;;;4.83;67.00
77454;BME280;66538;53.150;18.160;2023-03-01T09:32:31;102581.11;;;4.97;66.92
77454;BME280;66538;53.150;18.160;2023-03-01T09:34:57;102579.44;;;5.10;67.21
77454;BME280;66538;53.150;18.160;2023-03-01T09:37:32;102576.13;;;5.18;66.92
77454;BME280;66538;53.150;18.160;2023-03-01T09:40:00;102568.13;;;5.27;67.09
77454;BME280;66538;53.150;18.160;2023-03-01T09:42:29;102572.04;;;5.42;66.63
77454;BME280;66538;53.150;18.160;2023-03-01T09:45:04;102568.30;;;5.50;67.03
77454;BME280;66538;53.150;18.160;2023-03-01T09:47:33;102569.84;;;5.57;66.53
77454;BME280;66538;53.150;18.160;2023-03-01T09:50:15;102568.96;;;5.64;66.39
77454;BME280;66538;53.150;18.160;2023-03-01T09:52:46;102570.92;;;5.73;66.44
77454;BME280;66538;53.150;18.160;2023-03-01T09:55:28;102560.60;;;5.69;66.47
77454;BME280;66538;53.150;18.160;2023-03-01T09:58:04;102564.77;;;5.79;66.43
77454;BME280;66538;53.150;18.160;2023-03-01T10:00:42;102558.06;;;5.88;66.32
77454;BME280;66538;53.150;18.160;2023-03-01T10:03:16;102551.98;;;5.87;66.37
77454;BME280;66538;53.150;18.160;2023-03-01T10:08:40;102564.06;;;6.26;65.60
77454;BME280;66538;53.150;18.160;2023-03-01T10:11:21;102552.97;;;6.36;65.10
77454;BME280;66538;53.150;18.160;2023-03-01T10:16:48;102540.00;;;6.53;64.90
77454;BME280;66538;53.150;18.160;2023-03-01T10:19:42;102538.48;;;6.60;64.98
77454;BME280;66538;53.150;18.160;2023-03-01T10:22:20;102537.64;;;6.71;64.74
77454;BME280;66538;53.150;18.160;2023-03-01T10:24:51;102525.55;;;6.78;64.91
77454;BME280;66538;53.150;18.160;2023-03-01T10:27:23;102517.27;;;6.82;65.03
77454;BME280;66538;53.150;18.160;2023-03-01T10:32:20;102503.45;;;6.83;64.63
77454;BME280;66538;53.150;18.160;2023-03-01T10:34:48;102500.31;;;6.83;64.03
77454;BME280;66538;53.150;18.160;2023-03-01T10:37:17;102509.36;;;7.08;64.05
77454;BME280;66538;53.150;18.160;2023-03-01T10:40:01;102508.51;;;7.18;63.68
77454;BME280;66538;53.150;18.160;2023-03-01T10:42:35;102511.42;;;7.28;63.26
77454;BME280;66538;53.150;18.160;2023-03-01T10:50:44;102491.85;;;7.45;62.83
77454;BME280;66538;53.150;18.160;2023-03-01T10:53:28;102493.52;;;7.50;62.46
77454;BME280;66538;53.150;18.160;2023-03-01T10:56:08;102483.67;;;7.56;62.94
77454;BME280;66538;53.150;18.160;2023-03-01T10:58:38;102476.90;;;7.62;62.10
77454;BME280;66538;53.150;18.160;2023-03-01T11:01:27;102476.99;;;7.68;62.40
77454;BME280;66538;53.150;18.160;2023-03-01T11:04:13;102480.23;;;7.73;62.04
77454;BME280;66538;53.150;18.160;2023-03-01T11:06:40;102460.81;;;7.62;61.33
77454;BME280;66538;53.150;18.160;2023-03-01T11:09:14;102456.41;;;7.67;61.86
77454;BME280;66538;53.150;18.160;2023-03-01T11:11:42;102466.80;;;7.94;60.57
77454;BME280;66538;53.150;18.160;2023-03-01T11:14:17;102466.67;;;8.02;60.45
77454;BME280;66538;53.150;18.160;2023-03-01T11:16:45;102462.55;;;8.09;60.93
77454;BME280;66538;53.150;18.160;2023-03-01T11:19:16;102462.20;;;8.18;60.35
77454;BME280;66538;53.150;18.160;2023-03-01T11:22:00;102463.75;;;8.25;59.94
77454;BME280;66538;53.150;18.160;2023-03-01T11:26:59;102458.82;;;8.37;58.52
77454;BME280;66538;53.150;18.160;2023-03-01T11:29:45;102459.07;;;8.39;58.83
77454;BME280;66538;53.150;18.160;2023-03-01T11:32:14;102454.64;;;8.45;58.15
77454;BME280;66538;53.150;18.160;2023-03-01T11:34:56;102455.54;;;8.49;58.45
77454;BME280;66538;53.150;18.160;2023-03-01T11:37:55;102447.61;;;8.54;58.14
77454;BME280;66538;53.150;18.160;2023-03-01T11:40:29;102449.01;;;8.60;56.79
77454;BME280;66538;53.150;18.160;2023-03-01T11:43:35;102442.34;;;8.65;55.99
77454;BME280;66538;53.150;18.160;2023-03-01T11:54:25;102444.73;;;8.90;57.08
77454;BME280;66538;53.150;18.160;2023-03-01T11:56:55;102444.42;;;8.99;56.24
77454;BME280;66538;53.150;18.160;2023-03-01T12:02:37;102452.46;;;9.08;55.50
77454;BME280;66538;53.150;18.160;2023-03-01T12:08:13;102454.36;;;9.17;55.82
77454;BME280;66538;53.150;18.160;2023-03-01T12:11:03;102458.13;;;9.21;55.81
77454;BME280;66538;53.150;18.160;2023-03-01T12:13:48;102451.93;;;9.21;55.49
77454;BME280;66538;53.150;18.160;2023-03-01T12:19:25;102447.29;;;9.64;55.91
77454;BME280;66538;53.150;18.160;2023-03-01T12:22:31;102446.08;;;10.35;54.70
77454;BME280;66538;53.150;18.160;2023-03-01T12:25:16;102446.51;;;11.02;52.71
77454;BME280;66538;53.150;18.160;2023-03-01T12:31:08;102435.50;;;12.34;50.51
77454;BME280;66538;53.150;18.160;2023-03-01T12:39:15;102429.54;;;13.77;46.88
77454;BME280;66538;53.150;18.160;2023-03-01T12:41:48;102425.52;;;14.18;47.03
77454;BME280;66538;53.150;18.160;2023-03-01T12:50:14;102417.98;;;15.32;45.08
77454;BME280;66538;53.150;18.160;2023-03-01T12:52:49;102411.55;;;15.70;44.84
77454;BME280;66538;53.150;18.160;2023-03-01T12:55:33;102406.89;;;16.06;43.93
77454;BME280;66538;53.150;18.160;2023-03-01T13:06:19;102395.48;;;17.98;40.56
77454;BME280;66538;53.150;18.160;2023-03-01T13:09:11;102391.67;;;18.30;40.79
77454;BME280;66538;53.150;18.160;2023-03-01T13:11:42;102393.62;;;18.62;38.97
77454;BME280;66538;53.150;18.160;2023-03-01T13:16:54;102392.52;;;19.25;36.81
77454;BME280;66538;53.150;18.160;2023-03-01T13:19:23;102387.15;;;19.44;37.27
77454;BME280;66538;53.150;18.160;2023-03-01T13:21:53;102382.84;;;19.82;37.06
77454;BME280;66538;53.150;18.160;2023-03-01T13:32:28;102383.37;;;20.74;34.64
77454;BME280;66538;53.150;18.160;2023-03-01T13:35:01;102377.95;;;21.12;33.50
77454;BME280;66538;53.150;18.160;2023-03-01T13:37:37;102376.97;;;21.36;33.03
77454;BME280;66538;53.150;18.160;2023-03-01T13:42:45;102369.98;;;21.78;31.42
77454;BME280;66538;53.150;18.160;2023-03-01T13:45:19;102371.20;;;21.77;31.34
77454;BME280;66538;53.150;18.160;2023-03-01T13:47:50;102368.39;;;22.01;31.07
77454;BME280;66538;53.150;18.160;2023-03-01T13:50:23;102359.41;;;22.16;30.34
77454;BME280;66538;53.150;18.160;2023-03-01T13:52:54;102354.83;;;22.35;30.53
77454;BME280;66538;53.150;18.160;2023-03-01T14:03:25;102347.61;;;23.17;28.30
77454;BME280;66538;53.150;18.160;2023-03-01T14:06:08;102345.52;;;23.48;28.40
77454;BME280;66538;53.150;18.160;2023-03-01T14:08:38;102343.16;;;23.71;28.19
77454;BME280;66538;53.150;18.160;2023-03-01T14:14:42;102341.14;;;23.90;26.76
77454;BME280;66538;53.150;18.160;2023-03-01T14:19:57;102329.14;;;24.23;26.96
77454;BME280;66538;53.150;18.160;2023-03-01T14:22:30;102324.60;;;24.32;26.85
77454;BME280;66538;53.150;18.160;2023-03-01T14:25:00;102324.38;;;24.52;26.85
77454;BME280;66538;53.150;18.160;2023-03-01T14:27:33;102318.31;;;24.82;26.71
77454;BME280;66538;53.150;18.160;2023-03-01T14:30:14;102316.78;;;25.05;26.44
77454;BME280;66538;53.150;18.160;2023-03-01T14:32:41;102321.87;;;25.31;25.51